Time;durP1;ratioP1;P1;durP2;ratioP2;P2;SDS_P1;SDS_P2;PMS_P1;PMS_P2;Temp;Humidity;BMP_temperature;BMP_pressure;BME280_temperature;BME280_humidity;BME280_pressure;Samples;Min_cycle;Max_cycle;Signal;HPM_P1;HPM_P2
2021/01/03 00:00:26;;;;;;;7.22;6.63;;;;;;;2.22;72.89;100400.28;4857219;29;20082;-77
2021/01/03 00:02:52;;;;;;;7.70;6.32;;;;;;;2.21;73.83;100395.94;4877679;29;20040;-74
2021/01/03 00:05:21;;;;;;;6.00;5.57;;;;;;;2.20;72.82;100397.81;4858514;29;20116;-76
2021/01/03 00:07:47;;;;;;;8.52;6.70;;;;;;;2.26;73.43;100404.22;4853887;29;20029;-75
2021/01/03 00:10:12;;;;;;;5.53;5.13;;;;;;;2.30;73.81;100404.66;4857790;29;20041;-76
2021/01/03 00:12:38;;;;;;;4.63;4.22;;;;;;;2.34;73.73;100408.59;4873660;29;20058;-74
2021/01/03 00:15:07;;;;;;;7.20;5.30;;;;;;;2.39;73.63;100408.75;4854950;29;20025;-77
2021/01/03 00:17:32;;;;;;;6.32;5.78;;;;;;;2.44;73.53;100403.56;4863387;29;20041;-76
2021/01/03 00:19:58;;;;;;;5.75;5.20;;;;;;;2.44;73.53;100406.28;4861299;29;20029;-76
2021/01/03 00:22:23;;;;;;;6.30;5.78;;;;;;;2.49;73.29;100414.53;4873667;29;20066;-74
2021/01/03 00:24:49;;;;;;;6.20;5.40;;;;;;;2.50;73.75;100401.88;4858852;29;20033;-75
2021/01/03 00:27:14;;;;;;;6.40;5.85;;;;;;;2.50;73.36;100397.31;4860761;29;20431;-75
2021/01/03 00:29:40;;;;;;;5.75;5.28;;;;;;;2.55;72.88;100405.59;4858046;29;20038;-74
2021/01/03 00:32:06;;;;;;;5.20;4.90;;;;;;;2.59;73.07;100401.41;4860881;29;20032;-77
2021/01/03 00:34:32;;;;;;;4.88;4.47;;;;;;;2.60;73.66;100403.09;4867177;29;20033;-75
2021/01/03 00:36:57;;;;;;;4.60;4.25;;;;;;;2.66;73.62;100401.41;4864478;29;20045;-76
2021/01/03 00:39:23;;;;;;;5.47;5.15;;;;;;;2.70;73.21;100396.38;4859982;29;20038;-77
2021/01/03 00:41:50;;;;;;;6.47;5.85;;;;;;;2.75;73.15;100393.88;4869505;29;20044;-77
2021/01/03 00:44:18;;;;;;;6.03;5.53;;;;;;;2.83;72.10;100396.31;4874337;29;20082;-77
2021/01/03 00:46:44;;;;;;;5.50;5.07;;;;;;;2.83;72.87;100395.50;4874132;29;20069;-76
2021/01/03 00:49:10;;;;;;;6.10;5.70;;;;;;;2.84;72.08;100395.28;4872365;29;20049;-76
2021/01/03 00:51:36;;;;;;;5.82;5.38;;;;;;;2.80;72.38;100394.06;4852593;29;20033;-74
2021/01/03 00:54:02;;;;;;;5.75;5.15;;;;;;;2.75;72.69;100385.78;4868182;29;21420;-75
2021/01/03 00:56:30;;;;;;;6.20;5.60;;;;;;;2.78;72.36;100383.47;4865813;29;20033;-76
2021/01/03 00:58:58;;;;;;;5.53;5.03;;;;;;;2.83;72.25;100390.09;4865108;29;20086;-76
2021/01/03 01:01:24;;;;;;;6.43;5.13;;;;;;;2.77;72.78;100378.28;4863545;29;20041;-78
2021/01/03 01:03:50;;;;;;;5.25;4.82;;;;;;;2.87;71.51;100394.03;4863683;29;20033;-78
2021/01/03 01:06:16;;;;;;;4.80;4.25;;;;;;;2.81;71.99;100384.91;4863574;29;20066;-75
2021/01/03 01:08:41;;;;;;;4.45;4.03;;;;;;;2.88;72.99;100391.13;4861631;29;20571;-79
2021/01/03 01:11:07;;;;;;;4.28;3.97;;;;;;;2.96;72.82;100390.03;4849008;29;20054;-76
2021/01/03 01:13:33;;;;;;;4.65;4.28;;;;;;;2.96;72.65;100396.28;4859476;29;20150;-77
2021/01/03 01:16:01;;;;;;;6.38;5.85;;;;;;;2.92;72.41;100389.66;4866546;29;20022;-78
2021/01/03 01:18:27;;;;;;;5.20;4.82;;;;;;;2.94;72.96;100398.34;4853647;29;20030;-77
2021/01/03 01:20:52;;;;;;;5.75;5.22;;;;;;;2.96;72.73;100401.69;4864742;29;20040;-76
2021/01/03 01:23:18;;;;;;;7.00;6.40;;;;;;;2.97;72.16;100392.50;4864911;29;20057;-77
2021/01/03 01:25:43;;;;;;;6.13;5.43;;;;;;;2.97;71.53;100397.09;4866282;29;20037;-76
2021/01/03 01:28:09;;;;;;;6.63;6.05;;;;;;;2.94;72.90;100392.94;4865418;29;20037;-75
2021/01/03 01:30:38;;;;;;;5.70;5.07;;;;;;;2.95;71.54;100397.31;4868222;29;20037;-76
2021/01/03 01:33:05;;;;;;;4.80;4.40;;;;;;;2.95;72.21;100400.00;4863939;29;20029;-77
2021/01/03 01:35:32;;;;;;;5.28;4.88;;;;;;;3.03;72.34;100400.81;4868488;29;20021;-77
2021/01/03 01:37:58;;;;;;;7.07;5.25;;;;;;;3.07;72.75;100407.44;4864305;29;20034;-76
2021/01/03 01:40:29;;;;;;;6.63;4.68;;;;;;;3.09;72.81;100405.34;4862932;29;20041;-79
2021/01/03 01:42:56;;;;;;;4.93;4.45;;;;;;;3.10;72.45;100401.59;4868888;29;20034;-79
2021/01/03 01:45:25;;;;;;;6.00;5.60;;;;;;;3.14;72.67;100403.66;4878862;29;20050;-78
2021/01/03 01:48:04;;;;;;;5.00;4.63;;;;;;;3.22;71.96;100415.25;4868752;29;20057;-78
2021/01/03 01:51:04;;;;;;;5.57;5.05;;;;;;;3.23;72.14;100409.63;4867881;29;20092;-77
2021/01/03 01:53:55;;;;;;;6.07;5.57;;;;;;;3.24;72.76;100414.00;4859425;29;20471;-79
2021/01/03 01:56:44;;;;;;;5.40;5.07;;;;;;;3.22;72.64;100399.84;4881242;29;20033;-78
2021/01/03 01:59:44;;;;;;;5.40;5.10;;;;;;;3.23;72.91;100406.09;4865271;29;20022;-78
2021/01/03 02:02:54;;;;;;;;;;;;;;;;;;;;;
2021/01/03 02:05:36;;;;;;;6.55;5.95;;;;;;;3.16;72.15;100406.13;4865777;29;20116;-75
2021/01/03 02:08:26;;;;;;;6.82;6.30;;;;;;;3.18;72.72;100401.31;4862838;29;20021;-78
2021/01/03 02:10:52;;;;;;;5.65;5.18;;;;;;;3.09;72.52;100400.75;4864149;29;20072;-76
2021/01/03 02:13:32;;;;;;;5.85;5.25;;;;;;;3.08;72.97;100390.16;4861281;29;20676;-77
2021/01/03 02:16:03;;;;;;;6.53;5.28;;;;;;;3.09;73.12;100397.22;4878821;29;20060;-75
2021/01/03 02:18:28;;;;;;;6.38;5.78;;;;;;;3.05;72.78;100396.00;4865186;29;20030;-81
2021/01/03 02:21:14;;;;;;;4.72;4.45;;;;;;;3.08;73.42;100399.13;4860042;29;20029;-79
2021/01/03 02:24:22;;;;;;;5.55;3.95;;;;;;;3.14;72.61;100409.03;4858046;29;20029;-79
2021/01/03 02:26:55;;;;;;;5.93;5.43;;;;;;;3.13;73.63;100398.47;4859226;29;20065;-78
2021/01/03 02:29:22;;;;;;;10.20;5.13;;;;;;;3.14;73.20;100403.66;4863706;29;20025;-79
2021/01/03 02:31:57;;;;;;;5.80;5.38;;;;;;;3.19;73.74;100405.69;4867145;29;20025;-79
2021/01/03 02:34:30;;;;;;;4.50;4.10;;;;;;;3.24;73.91;100408.59;4867570;29;20021;-79
2021/01/03 02:37:01;;;;;;;6.10;4.72;;;;;;;3.26;72.82;100406.47;4879128;29;20055;-79
2021/01/03 02:39:31;;;;;;;4.13;3.83;;;;;;;3.25;72.65;100399.41;4879547;29;20026;-79
2021/01/03 02:42:09;;;;;;;6.50;3.78;;;;;;;3.26;72.70;100395.66;4878734;29;20060;-80
2021/01/03 02:44:35;;;;;;;4.57;4.20;;;;;;;3.33;73.20;100392.94;4868784;29;20610;-79
2021/01/03 02:47:00;;;;;;;4.55;4.15;;;;;;;3.36;73.00;100391.63;4868688;29;20038;-79
2021/01/03 02:49:29;;;;;;;4.80;4.40;;;;;;;3.32;73.46;100385.84;4849731;29;20045;-80
2021/01/03 02:51:54;;;;;;;4.65;4.38;;;;;;;3.35;73.50;100393.53;4853680;29;20059;-78
2021/01/03 02:54:25;;;;;;;3.70;3.42;;;;;;;3.36;73.24;100394.34;4866770;29;20032;-79
2021/01/03 02:56:51;;;;;;;2.70;2.60;;;;;;;3.35;74.21;100390.81;4866027;29;20069;-79
2021/01/03 02:59:22;;;;;;;3.42;3.22;;;;;;;3.39;73.34;100394.75;4866551;29;20037;-79
2021/01/03 03:01:47;;;;;;;3.25;2.97;;;;;;;3.41;73.08;100383.72;4848122;29;20049;-78
2021/01/03 03:04:13;;;;;;;3.65;3.35;;;;;;;3.47;74.10;100388.25;4868075;29;20052;-81
2021/01/03 03:06:39;;;;;;;3.50;3.30;;;;;;;3.53;73.14;100390.06;4867920;29;20512;-79
2021/01/03 03:09:06;;;;;;;2.92;2.72;;;;;;;3.55;73.37;100387.13;4868673;29;20029;-79
2021/01/03 03:11:32;;;;;;;3.05;2.85;;;;;;;3.54;72.68;100386.31;4868854;29;20074;-78
2021/01/03 03:14:00;;;;;;;3.10;2.97;;;;;;;3.58;72.97;100392.94;4865811;29;20041;-79
2021/01/03 03:16:26;;;;;;;2.08;1.98;;;;;;;3.55;72.94;100392.53;4880156;29;20030;-81
2021/01/03 03:18:51;;;;;;;2.42;2.33;;;;;;;3.59;73.65;100393.75;4834258;29;20742;-81
2021/01/03 03:21:19;;;;;;;2.65;2.45;;;;;;;3.55;73.84;100382.56;4852960;29;20038;-81
2021/01/03 03:23:53;;;;;;;2.80;2.70;;;;;;;3.59;73.74;100389.19;4864605;29;20025;-81
2021/01/03 03:26:22;;;;;;;3.03;2.92;;;;;;;3.57;72.63;100380.47;4868988;29;20033;-81
2021/01/03 03:29:00;;;;;;;3.97;3.67;;;;;;;3.53;72.64;100379.22;4871606;29;20098;-80
2021/01/03 03:31:29;;;;;;;6.13;3.90;;;;;;;3.58;73.70;100381.31;4869749;29;20437;-80
2021/01/03 03:33:55;;;;;;;3.05;2.85;;;;;;;3.52;72.74;100383.00;4868884;29;20021;-80
2021/01/03 03:36:20;;;;;;;3.15;3.00;;;;;;;3.42;72.61;100369.16;4867594;29;20093;-82
2021/01/03 03:38:50;;;;;;;4.30;3.88;;;;;;;3.54;73.07;100380.91;4871412;29;20046;-81
2021/01/03 03:41:24;;;;;;;3.63;3.35;;;;;;;3.58;73.79;100371.31;4871678;29;20053;-81
2021/01/03 03:43:49;;;;;;;5.55;3.60;;;;;;;3.57;73.15;100375.06;4869657;29;20066;-81
2021/01/03 03:46:21;;;;;;;3.65;3.45;;;;;;;3.60;73.49;100369.19;4871607;29;20033;-81
2021/01/03 03:48:46;;;;;;;4.55;4.15;;;;;;;3.56;73.30;100370.69;4871619;29;20071;-80
2021/01/03 03:51:23;;;;;;;3.45;3.25;;;;;;;3.55;73.38;100358.22;4870575;29;20026;-81
2021/01/03 03:53:49;;;;;;;4.88;4.32;;;;;;;3.70;72.92;100368.69;4871082;29;20050;-80
2021/01/03 03:56:34;;;;;;;5.20;4.70;;;;;;;3.67;73.07;100359.16;4864977;29;20033;-80
2021/01/03 03:58:59;;;;;;;7.10;5.15;;;;;;;3.62;73.51;100356.31;4890290;29;20041;-79
2021/01/03 04:01:34;;;;;;;4.43;4.10;;;;;;;3.66;73.21;100368.34;4838912;29;20094;-79
2021/01/03 04:04:08;;;;;;;3.72;3.22;;;;;;;3.66;73.38;100376.44;4870243;29;20053;-79
2021/01/03 04:06:36;;;;;;;5.78;5.28;;;;;;;3.66;73.72;100368.34;4860844;29;20066;-80
2021/01/03 04:09:12;;;;;;;5.22;4.07;;;;;;;3.65;73.52;100374.78;4849529;29;20064;-80
2021/01/03 04:11:39;;;;;;;4.72;4.35;;;;;;;3.66;73.85;100373.75;4853486;29;20049;-79
2021/01/03 04:14:12;;;;;;;4.30;3.95;;;;;;;3.66;73.29;100376.44;4870339;29;20037;-81
2021/01/03 04:17:01;;;;;;;4.20;3.90;;;;;;;3.70;73.54;100376.00;4868902;29;20029;-80
2021/01/03 04:19:28;;;;;;;5.18;4.57;;;;;;;3.67;73.47;100371.84;4870069;29;20041;-79
2021/01/03 04:21:55;;;;;;;4.55;4.20;;;;;;;3.65;73.10;100377.47;4869243;29;20026;-78
2021/01/03 04:24:42;;;;;;;7.07;4.25;;;;;;;3.65;74.44;100380.19;4880906;29;20040;-79
2021/01/03 04:27:18;;;;;;;4.25;3.95;;;;;;;3.62;73.60;100367.13;4866204;29;20036;-79
2021/01/03 04:29:46;;;;;;;5.45;4.95;;;;;;;3.59;73.95;100356.75;4870910;29;20043;-79
2021/01/03 04:32:14;;;;;;;5.22;4.80;;;;;;;3.61;73.21;100368.16;4848956;29;20045;-79
2021/01/03 04:34:42;;;;;;;7.53;4.55;;;;;;;3.64;74.42;100365.00;4865072;29;20037;-81
2021/01/03 04:37:08;;;;;;;3.88;3.63;;;;;;;3.60;74.43;100363.78;4866741;29;20034;-79
2021/01/03 04:39:50;;;;;;;;;;;;;;;;;;;;;
2021/01/03 04:42:20;;;;;;;5.57;5.07;;;;;;;3.63;74.23;100363.34;4865059;29;20540;-81
2021/01/03 04:44:51;;;;;;;4.70;4.40;;;;;;;3.58;73.76;100359.66;4881498;29;20061;-81
2021/01/03 04:47:32;;;;;;;4.75;4.30;;;;;;;3.63;74.64;100368.75;4861179;29;20029;-80
2021/01/03 04:50:52;;;;;;;4.40;3.88;;;;;;;3.62;74.71;100360.84;4873231;29;20014;-79
2021/01/03 04:53:43;;;;;;;4.95;4.63;;;;;;;3.61;73.76;100357.34;4883397;29;20025;-81
2021/01/03 04:56:33;;;;;;;;;;;;;;;;;;;;;
2021/01/03 04:59:25;;;;;;;4.18;3.88;;;;;;;3.61;73.96;100360.03;4862616;29;20100;-82
2021/01/03 05:02:29;;;;;;;4.38;4.07;;;;;;;3.67;73.94;100367.25;4842771;29;20049;-83
2021/01/03 05:05:23;;;;;;;4.90;4.50;;;;;;;3.71;74.62;100356.00;4860036;29;20037;-81
2021/01/03 05:08:28;;;;;;;5.07;4.68;;;;;;;3.69;74.21;100344.59;4850303;29;20025;-80
2021/01/03 05:11:00;;;;;;;4.35;3.95;;;;;;;3.71;74.26;100364.09;4863138;29;20077;-81
2021/01/03 05:13:57;;;;;;;4.50;4.22;;;;;;;3.68;74.33;100360.00;4837041;29;20106;-81
2021/01/03 05:16:34;;;;;;;4.43;4.13;;;;;;;3.73;74.01;100362.03;4864685;29;20067;-79
2021/01/03 05:19:05;;;;;;;4.28;3.97;;;;;;;3.78;74.45;100373.84;4851888;29;20045;-79
2021/01/03 05:21:57;;;;;;;4.88;4.43;;;;;;;3.82;74.48;100366.91;4851069;29;20026;-83
2021/01/03 05:24:32;;;;;;;4.93;4.50;;;;;;;3.78;74.30;100356.75;4846291;29;20032;-82
2021/01/03 05:27:20;;;;;;;4.97;4.50;;;;;;;3.82;74.56;100363.38;4862210;29;20022;-81
2021/01/03 05:29:46;;;;;;;5.00;4.53;;;;;;;3.76;74.09;100361.59;4837564;29;20281;-81
2021/01/03 05:32:34;;;;;;;4.70;4.40;;;;;;;3.78;73.87;100354.06;4864466;29;20028;-80
2021/01/03 05:35:03;;;;;;;5.45;5.03;;;;;;;3.78;74.12;100363.03;4853046;29;20112;-79
2021/01/03 05:37:41;;;;;;;4.63;4.28;;;;;;;3.79;74.70;100358.44;4859111;29;20032;-79
2021/01/03 05:40:37;;;;;;;5.50;5.00;;;;;;;3.83;74.01;100362.34;4862883;29;20473;-79
2021/01/03 05:43:25;;;;;;;3.75;3.55;;;;;;;3.85;73.89;100360.22;4850929;29;20033;-80
2021/01/03 05:46:17;;;;;;;5.10;4.35;;;;;;;3.88;74.77;100370.59;4861541;29;20036;-80
2021/01/03 05:49:02;;;;;;;4.95;4.55;;;;;;;3.84;74.79;100354.00;4869334;29;20030;-78
2021/01/03 05:51:41;;;;;;;5.93;5.10;;;;;;;3.96;74.95;100362.22;4883736;29;20030;-79
2021/01/03 05:54:37;;;;;;;4.82;4.53;;;;;;;3.98;74.86;100361.97;4867272;29;20040;-81
2021/01/03 05:57:13;;;;;;;6.40;5.78;;;;;;;3.95;74.03;100354.31;4889292;29;20038;-79
2021/01/03 06:00:22;;;;;;;5.28;4.88;;;;;;;3.93;74.90;100354.53;4861867;29;20076;-79
2021/01/03 06:02:58;;;;;;;5.20;4.85;;;;;;;4.02;74.42;100365.91;4873617;29;20041;-79
2021/01/03 06:05:24;;;;;;;4.63;4.32;;;;;;;3.98;74.22;100370.91;4873924;29;20037;-81
2021/01/03 06:08:18;;;;;;;4.82;4.28;;;;;;;4.08;74.68;100377.72;4864014;29;20025;-82
2021/01/03 06:10:44;;;;;;;4.68;4.32;;;;;;;4.07;74.17;100373.34;4875247;29;20050;-81
2021/01/03 06:13:14;;;;;;;5.55;5.15;;;;;;;4.06;74.53;100374.38;4869047;29;20071;-79
2021/01/03 06:15:57;;;;;;;4.13;3.53;;;;;;;4.01;73.95;100375.88;4885029;29;20025;-79
2021/01/03 06:19:04;;;;;;;;;;;;;;;;;;;;;
2021/01/03 06:21:35;;;;;;;5.43;5.03;;;;;;;4.08;74.83;100385.84;4855073;29;20124;-79
2021/01/03 06:24:25;;;;;;;6.40;5.30;;;;;;;4.06;74.57;100382.50;4850941;29;20037;-81
2021/01/03 06:27:13;;;;;;;;;;;;;;;;;;;;;
2021/01/03 06:29:56;;;;;;;6.28;5.70;;;;;;;4.15;74.35;100402.84;4864024;29;20093;-79
2021/01/03 06:32:43;;;;;;;3.95;3.70;;;;;;;4.16;74.56;100399.06;4860183;29;20037;-79
2021/01/03 06:35:37;;;;;;;3.35;3.03;;;;;;;4.19;74.16;100399.44;4860041;29;20033;-78
2021/01/03 06:38:15;;;;;;;3.28;3.08;;;;;;;4.25;74.18;100403.13;4877259;29;20384;-79
2021/01/03 06:41:14;;;;;;;2.17;2.08;;;;;;;4.26;74.16;100404.78;4867667;29;20029;-78
2021/01/03 06:43:58;;;;;;;2.03;1.83;;;;;;;4.30;73.81;100416.00;4876784;29;20059;-80
2021/01/03 06:46:45;;;;;;;1.65;1.55;;;;;;;4.36;73.47;100410.50;4849937;29;20032;-80
2021/01/03 06:49:35;;;;;;;2.70;2.50;;;;;;;4.41;73.44;100417.13;4871899;29;20097;-80
2021/01/03 06:52:40;;;;;;;4.22;3.78;;;;;;;4.30;73.04;100405.97;4858842;29;20117;-79
2021/01/03 06:55:42;;;;;;;3.00;2.80;;;;;;;4.32;73.40;100409.31;4855012;29;20061;-79
2021/01/03 06:58:24;;;;;;;3.65;3.45;;;;;;;4.29;73.13;100415.19;4855327;29;20029;-77
2021/01/03 07:01:35;;;;;;;4.20;3.92;;;;;;;4.29;73.42;100420.59;4860259;29;20512;-79
2021/01/03 07:04:18;;;;;;;4.35;4.15;;;;;;;4.20;73.82;100421.91;4862011;29;20038;-80
2021/01/03 07:06:45;;;;;;;7.10;3.95;;;;;;;4.18;74.14;100424.03;4875182;29;20046;-80
2021/01/03 07:09:13;;;;;;;6.60;5.35;;;;;;;4.15;74.25;100419.88;4863075;29;20048;-81
2021/01/03 07:11:53;;;;;;;4.95;4.65;;;;;;;4.17;74.18;100419.66;4859526;29;20050;-79
2021/01/03 07:14:21;;;;;;;6.05;5.47;;;;;;;4.17;74.58;100416.97;4873720;29;20041;-79
2021/01/03 07:16:54;;;;;;;5.55;5.25;;;;;;;4.15;74.81;100419.06;4865948;29;20037;-78
2021/01/03 07:19:56;;;;;;;5.90;5.53;;;;;;;4.12;74.01;100411.41;4860755;29;20089;-79
2021/01/03 07:22:30;;;;;;;4.88;4.57;;;;;;;4.16;74.21;100423.41;4876129;29;20117;-77
2021/01/03 07:24:55;;;;;;;5.60;5.28;;;;;;;4.17;74.91;100422.38;4855641;29;20036;-79
2021/01/03 07:27:42;;;;;;;6.90;5.80;;;;;;;4.17;74.39;100422.38;4863374;29;20025;-76
2021/01/03 07:30:08;;;;;;;6.18;5.70;;;;;;;4.15;74.34;100419.88;4868578;29;20052;-81
2021/01/03 07:32:37;;;;;;;8.00;5.75;;;;;;;4.16;74.74;100420.72;4863643;29;20469;-80
2021/01/03 07:35:19;;;;;;;5.45;5.15;;;;;;;4.14;74.91;100412.81;4877213;29;20033;-80
2021/01/03 07:37:45;;;;;;;5.47;5.15;;;;;;;4.07;75.38;100401.22;4862201;29;20022;-80
2021/01/03 07:40:13;;;;;;;6.15;5.63;;;;;;;4.16;75.16;100424.25;4859015;29;21409;-80
2021/01/03 07:42:45;;;;;;;7.57;6.88;;;;;;;4.17;74.98;100423.19;4861583;29;20029;-79
2021/01/03 07:45:13;;;;;;;7.35;6.70;;;;;;;4.16;75.54;100428.81;4864894;29;20033;-80
2021/01/03 07:47:41;;;;;;;5.13;4.65;;;;;;;4.11;75.66;100418.69;4865058;29;20048;-79
2021/01/03 07:50:39;;;;;;;8.02;6.10;;;;;;;4.18;75.07;100435.69;4879730;29;20500;-78
2021/01/03 07:53:34;;;;;;;7.13;6.00;;;;;;;4.22;75.86;100427.97;4877333;29;20032;-79
2021/01/03 07:56:16;;;;;;;7.60;5.95;;;;;;;4.27;75.51;100433.50;4877364;29;20113;-80
2021/01/03 07:58:42;;;;;;;5.32;4.95;;;;;;;4.22;75.70;100436.06;4860950;29;20030;-79
2021/01/03 08:01:11;;;;;;;7.28;6.60;;;;;;;4.23;75.26;100437.72;4859513;29;20116;-80
2021/01/03 08:03:37;;;;;;;6.20;5.70;;;;;;;4.30;75.01;100438.47;4858457;29;20109;-77
2021/01/03 08:06:12;;;;;;;6.30;5.82;;;;;;;4.32;75.37;100440.94;4857232;29;20116;-81
2021/01/03 08:08:38;;;;;;;6.07;5.50;;;;;;;4.31;74.89;100448.25;4853263;29;20537;-82
2021/01/03 08:11:26;;;;;;;6.28;5.72;;;;;;;4.33;75.03;100445.31;4861147;29;20053;-83
2021/01/03 08:14:01;;;;;;;4.55;4.25;;;;;;;4.32;75.29;100446.38;4872811;29;20084;-81
2021/01/03 08:16:28;;;;;;;5.00;4.70;;;;;;;4.19;75.24;100437.34;4864557;29;20124;-84
2021/01/03 08:19:08;;;;;;;6.22;4.22;;;;;;;4.32;74.84;100446.38;4863024;29;20476;-82
2021/01/03 08:21:54;;;;;;;4.53;4.25;;;;;;;4.26;75.60;100442.66;4878753;29;20041;-84
2021/01/03 08:24:36;;;;;;;;;;;;;;;;;;;;;
2021/01/03 08:27:18;;;;;;;4.82;4.63;;;;;;;4.25;75.57;100423.94;4861094;29;20109;-81
2021/01/03 08:29:58;;;;;;;4.72;4.38;;;;;;;4.40;74.96;100454.22;4858418;29;20117;-84
2021/01/03 08:33:00;;;;;;;3.55;3.28;;;;;;;4.27;75.37;100422.69;4860213;29;20129;-81
2021/01/03 08:35:34;;;;;;;4.00;3.45;;;;;;;4.32;75.28;100436.38;4861861;29;20081;-83
2021/01/03 08:38:18;;;;;;;4.72;4.43;;;;;;;4.35;74.97;100430.53;4861755;29;20029;-82
2021/01/03 08:40:43;;;;;;;6.43;5.93;;;;;;;4.51;75.58;100456.19;4851585;29;20445;-79
2021/01/03 08:43:28;;;;;;;4.70;4.35;;;;;;;4.51;75.37;100460.75;4858941;29;20029;-80
2021/01/03 08:46:05;;;;;;;5.25;4.93;;;;;;;4.49;75.31;100454.75;4854427;29;20037;-82
2021/01/03 08:48:31;;;;;;;4.88;4.53;;;;;;;4.58;74.68;100460.69;4859470;29;20031;-81
2021/01/03 08:51:12;;;;;;;4.55;4.22;;;;;;;4.66;74.89;100463.94;4872518;29;20026;-80
2021/01/03 08:53:38;;;;;;;4.85;4.55;;;;;;;4.63;74.91;100464.38;4873305;29;20025;-76
2021/01/03 08:56:07;;;;;;;5.45;5.05;;;;;;;4.72;75.22;100473.84;4856075;29;20033;-78
2021/01/03 08:58:35;;;;;;;4.78;4.47;;;;;;;4.64;74.48;100455.19;4860083;29;20029;-77
2021/01/03 09:01:05;;;;;;;4.95;4.55;;;;;;;4.77;75.07;100480.47;4858052;29;20528;-80
2021/01/03 09:03:33;;;;;;;5.43;5.03;;;;;;;4.70;75.05;100454.28;4843445;29;20046;-79
2021/01/03 09:05:59;;;;;;;4.60;4.20;;;;;;;4.79;74.71;100472.94;4856294;29;20032;-79
2021/01/03 09:08:39;;;;;;;4.80;4.50;;;;;;;4.87;74.84;100459.91;4859291;29;20037;-80
2021/01/03 09:11:31;;;;;;;4.63;3.67;;;;;;;5.10;74.45;100480.06;4856538;29;20112;-79
2021/01/03 09:14:25;;;;;;;5.20;4.65;;;;;;;5.21;74.52;100483.88;4876700;29;20037;-80
2021/01/03 09:17:03;;;;;;;5.15;4.85;;;;;;;5.26;74.11;100478.63;4860395;29;20043;-84
2021/01/03 09:20:15;;;;;;;4.30;3.90;;;;;;;5.40;73.66;100484.66;4860601;29;20125;-79
2021/01/03 09:23:07;;;;;;;3.65;3.45;;;;;;;5.44;73.18;100480.44;4870240;29;20401;-81
2021/01/03 09:25:54;;;;;;;4.40;4.20;;;;;;;5.41;73.11;100481.72;4867488;29;20028;-79
2021/01/03 09:28:52;;;;;;;3.83;3.63;;;;;;;5.41;73.44;100479.00;4861487;29;20030;-83
2021/01/03 09:34:39;;;;;;;4.35;4.15;;;;;;;5.42;72.55;100469.81;4856509;29;20064;-80
2021/01/03 09:37:15;;;;;;;3.28;3.15;;;;;;;5.59;72.96;100490.88;4883092;29;20112;-80
2021/01/03 09:40:04;;;;;;;4.30;3.97;;;;;;;5.61;72.52;100491.47;4856981;29;20057;-81
2021/01/03 09:42:59;;;;;;;4.05;3.85;;;;;;;5.65;72.45;100498.09;4849220;29;20104;-80
2021/01/03 09:45:45;;;;;;;3.35;3.10;;;;;;;5.57;72.16;100484.84;4850250;29;20037;-83
2021/01/03 09:48:31;;;;;;;4.30;4.00;;;;;;;5.67;72.66;100497.88;4862269;29;20033;-83
2021/01/03 09:51:11;;;;;;;3.17;3.08;;;;;;;5.73;72.92;100495.03;4859868;29;20033;-81
2021/01/03 09:53:39;;;;;;;3.65;3.45;;;;;;;5.80;72.02;100494.09;4861663;29;20031;-81
2021/01/03 09:56:33;;;;;;;3.30;3.15;;;;;;;5.80;72.31;100491.38;4856645;29;20029;-80
2021/01/03 09:59:08;;;;;;;3.15;3.05;;;;;;;5.80;71.78;100499.53;4857810;29;20032;-79
2021/01/03 10:01:36;;;;;;;2.97;2.88;;;;;;;5.71;72.02;100491.75;4857822;29;20059;-80
2021/01/03 10:04:13;;;;;;;3.90;3.58;;;;;;;5.80;71.93;100502.25;4861109;29;20033;-77
2021/01/03 10:06:40;;;;;;;3.92;3.72;;;;;;;5.72;71.97;100504.25;4854425;29;20503;-78
2021/01/03 10:09:23;;;;;;;4.32;4.03;;;;;;;5.68;72.65;100497.63;4871477;29;20070;-79
2021/01/03 10:11:49;;;;;;;3.88;3.00;;;;;;;5.76;72.98;100505.41;4890857;29;20037;-79
2021/01/03 10:14:30;;;;;;;3.88;3.67;;;;;;;5.71;72.40;100494.44;4869669;29;20038;-75
2021/01/03 10:16:56;;;;;;;4.40;4.10;;;;;;;5.72;72.30;100509.69;4861497;29;20033;-78
2021/01/03 10:19:31;;;;;;;3.90;3.60;;;;;;;5.65;72.62;100497.25;4856163;29;20531;-75
2021/01/03 10:21:57;;;;;;;3.70;3.45;;;;;;;5.73;72.96;100505.88;4848506;29;20120;-75
2021/01/03 10:24:25;;;;;;;3.72;3.42;;;;;;;5.72;72.56;100503.41;4881499;29;20116;-75
2021/01/03 10:27:02;;;;;;;3.78;3.58;;;;;;;5.85;72.56;100518.66;4850246;29;20120;-75
2021/01/03 10:29:37;;;;;;;3.78;3.58;;;;;;;5.84;72.38;100517.00;4853696;29;20033;-75
2021/01/03 10:32:02;;;;;;;3.10;2.90;;;;;;;5.80;72.54;100510.38;4848379;29;20036;-76
2021/01/03 10:34:35;;;;;;;2.85;2.65;;;;;;;5.75;72.47;100506.50;4858447;29;20104;-74
2021/01/03 10:37:05;;;;;;;3.28;2.90;;;;;;;5.81;72.63;100501.19;4837760;29;20515;-75
2021/01/03 10:39:31;;;;;;;3.38;2.15;;;;;;;5.91;72.62;100496.00;4856072;29;20037;-74
2021/01/03 10:41:57;;;;;;;2.90;2.70;;;;;;;6.13;72.37;100503.63;4845138;29;20101;-74
2021/01/03 10:44:23;;;;;;;2.38;2.17;;;;;;;6.27;71.37;100499.63;4855551;29;20228;-74
2021/01/03 10:46:58;;;;;;;2.92;2.83;;;;;;;6.39;71.79;100500.47;4854218;29;20037;-75
2021/01/03 10:49:24;;;;;;;4.00;2.30;;;;;;;6.59;71.48;100504.72;4860068;29;20034;-74
2021/01/03 10:51:53;;;;;;;2.78;2.60;;;;;;;6.66;70.76;100491.00;4840987;29;20041;-75
2021/01/03 10:54:21;;;;;;;3.08;2.67;;;;;;;6.66;70.23;100491.84;4850769;29;20460;-74
2021/01/03 10:56:48;;;;;;;2.88;2.65;;;;;;;6.64;69.95;100489.34;4855176;29;20686;-73
2021/01/03 10:59:14;;;;;;;1.85;1.75;;;;;;;6.75;70.67;100495.81;4852506;29;20029;-74
2021/01/03 11:01:39;;;;;;;2.60;2.50;;;;;;;6.92;70.51;100497.78;4849778;29;20186;-76
2021/01/03 11:04:06;;;;;;;3.30;3.10;;;;;;;7.04;69.34;100492.31;4842330;29;20038;-74
2021/01/03 11:07:01;;;;;;;1.90;1.80;;;;;;;7.22;70.04;100485.91;4848112;29;20477;-73
2021/01/03 11:09:29;;;;;;;2.67;2.58;;;;;;;7.40;68.18;100496.56;4837694;29;20053;-75
2021/01/03 11:12:06;;;;;;;2.30;2.05;;;;;;;7.49;68.36;100497.84;4853128;29;20533;-73
2021/01/03 11:14:35;;;;;;;2.60;1.75;;;;;;;7.63;67.76;100500.28;4856397;29;20152;-73
2021/01/03 11:17:04;;;;;;;2.00;1.85;;;;;;;7.60;67.98;100485.25;4852276;29;20499;-75
2021/01/03 11:19:30;;;;;;;1.80;1.77;;;;;;;7.74;67.21;100480.34;4856083;29;20033;-74
2021/01/03 11:21:57;;;;;;;2.00;1.90;;;;;;;7.90;65.95;100488.75;4852787;29;20041;-75
2021/01/03 11:24:29;;;;;;;8.90;8.02;;;;;;;7.84;66.63;100474.22;4855815;29;20025;-76
2021/01/03 11:26:54;;;;;;;3.83;3.63;;;;;;;7.93;66.12;100488.25;4850004;29;20142;-74
2021/01/03 11:29:26;;;;;;;2.65;2.55;;;;;;;7.92;65.96;100476.53;4854282;29;20171;-73
2021/01/03 11:31:57;;;;;;;1.70;1.65;;;;;;;8.29;66.58;100475.22;4848162;29;20476;-73
2021/01/03 11:34:29;;;;;;;1.75;1.65;;;;;;;8.95;65.06;100474.50;4851658;29;20040;-73
2021/01/03 11:37:01;;;;;;;1.70;1.60;;;;;;;9.48;63.67;100481.09;4848494;29;20029;-75
2021/01/03 11:39:29;;;;;;;1.10;1.10;;;;;;;9.56;62.71;100483.38;4854143;29;20519;-75
2021/01/03 11:41:57;;;;;;;1.30;1.02;;;;;;;9.50;62.95;100478.94;4856698;29;20487;-75
2021/01/03 11:44:24;;;;;;;1.40;1.35;;;;;;;9.36;62.20;100472.22;4854904;29;20080;-74
2021/01/03 11:46:56;;;;;;;1.13;1.13;;;;;;;9.29;62.10;100461.53;4845090;29;20196;-75
2021/01/03 11:49:21;;;;;;;1.48;1.27;;;;;;;9.49;62.00;100466.38;4855043;29;20373;-76
2021/01/03 11:51:53;;;;;;;0.85;0.85;;;;;;;9.68;62.40;100468.72;4841001;29;20040;-75
2021/01/03 11:54:18;;;;;;;1.20;1.15;;;;;;;9.64;62.51;100471.16;4852963;29;20033;-74
2021/01/03 11:56:44;;;;;;;1.17;1.17;;;;;;;9.59;61.19;100460.19;4859611;29;20037;-75
2021/01/03 11:59:09;;;;;;;1.13;1.13;;;;;;;9.64;61.22;100464.84;4856624;29;20029;-75
2021/01/03 12:01:35;;;;;;;0.90;0.90;;;;;;;9.56;60.90;100469.72;4860667;29;20029;-76
2021/01/03 12:04:01;;;;;;;1.20;1.20;;;;;;;9.51;61.06;100468.84;4846647;29;20061;-76
2021/01/03 12:06:29;;;;;;;0.90;0.90;;;;;;;9.55;61.30;100468.06;4856346;29;20481;-76
2021/01/03 12:08:54;;;;;;;2.00;1.90;;;;;;;9.50;60.94;100462.56;4856877;29;20025;-75
2021/01/03 12:11:25;;;;;;;1.65;1.35;;;;;;;9.89;61.68;100458.81;4839843;29;20041;-75
2021/01/03 12:13:53;;;;;;;0.90;0.90;;;;;;;10.35;60.67;100450.16;4855207;29;20033;-76
2021/01/03 12:16:27;;;;;;;0.60;0.60;;;;;;;10.64;58.53;100458.78;4858667;29;20044;-77
2021/01/03 12:18:53;;;;;;;0.77;0.77;;;;;;;10.46;58.45;100446.41;4874486;29;20097;-75
2021/01/03 12:21:27;;;;;;;0.93;0.93;;;;;;;10.64;58.47;100465.09;4855289;29;20196;-77